sensor_id;sensor_type;location;lat;lon;timestamp;P1;durP1;ratioP1;P2;durP2;ratioP2
43710;SDS011;29309;42.682;23.372;2022-08-27T00:00:47;12.25;;;4.47;;
43710;SDS011;29309;42.682;23.372;2022-08-27T00:03:13;9.02;;;3.67;;
43710;SDS011;29309;42.682;23.372;2022-08-27T00:05:39;11.18;;;4.05;;
43710;SDS011;29309;42.682;23.372;2022-08-27T00:08:06;10.80;;;3.85;;
43710;SDS011;29309;42.682;23.372;2022-08-27T00:10:33;7.70;;;3.88;;
43710;SDS011;29309;42.682;23.372;2022-08-27T00:12:59;8.38;;;4.10;;
43710;SDS011;29309;42.682;23.372;2022-08-27T00:15:24;13.48;;;4.38;;
43710;SDS011;29309;42.682;23.372;2022-08-27T00:17:51;7.88;;;3.70;;
43710;SDS011;29309;42.682;23.372;2022-08-27T00:20:17;9.00;;;4.05;;
43710;SDS011;29309;42.682;23.372;2022-08-27T00:22:44;11.15;;;4.50;;
43710;SDS011;29309;42.682;23.372;2022-08-27T00:25:10;13.20;;;4.55;;
43710;SDS011;29309;42.682;23.372;2022-08-27T00:27:36;11.40;;;3.67;;
43710;SDS011;29309;42.682;23.372;2022-08-27T00:30:07;12.55;;;4.70;;
43710;SDS011;29309;42.682;23.372;2022-08-27T00:32:35;13.40;;;4.70;;
43710;SDS011;29309;42.682;23.372;2022-08-27T00:35:00;12.63;;;4.70;;
43710;SDS011;29309;42.682;23.372;2022-08-27T00:37:26;8.73;;;4.15;;
43710;SDS011;29309;42.682;23.372;2022-08-27T00:39:51;8.27;;;3.58;;
43710;SDS011;29309;42.682;23.372;2022-08-27T00:42:17;11.80;;;4.32;;
43710;SDS011;29309;42.682;23.372;2022-08-27T00:44:43;11.45;;;4.32;;
43710;SDS011;29309;42.682;23.372;2022-08-27T00:47:11;8.80;;;4.13;;
43710;SDS011;29309;42.682;23.372;2022-08-27T00:49:46;8.88;;;3.72;;
43710;SDS011;29309;42.682;23.372;2022-08-27T00:54:52;11.88;;;3.97;;
43710;SDS011;29309;42.682;23.372;2022-08-27T00:57:24;11.82;;;3.92;;
43710;SDS011;29309;42.682;23.372;2022-08-27T00:59:51;10.18;;;3.97;;
43710;SDS011;29309;42.682;23.372;2022-08-27T01:02:17;19.23;;;5.32;;
43710;SDS011;29309;42.682;23.372;2022-08-27T01:05:28;11.43;;;4.00;;
43710;SDS011;29309;42.682;23.372;2022-08-27T01:07:35;11.93;;;4.25;;
43710;SDS011;29309;42.682;23.372;2022-08-27T01:10:05;10.35;;;3.60;;
43710;SDS011;29309;42.682;23.372;2022-08-27T01:12:35;12.48;;;4.55;;
43710;SDS011;29309;42.682;23.372;2022-08-27T01:15:03;10.38;;;3.95;;
43710;SDS011;29309;42.682;23.372;2022-08-27T01:17:31;12.85;;;4.85;;
43710;SDS011;29309;42.682;23.372;2022-08-27T01:25:08;14.75;;;4.07;;
43710;SDS011;29309;42.682;23.372;2022-08-27T01:27:37;17.27;;;4.05;;
43710;SDS011;29309;42.682;23.372;2022-08-27T01:30:04;8.98;;;4.25;;
43710;SDS011;29309;42.682;23.372;2022-08-27T01:32:31;9.70;;;4.25;;
43710;SDS011;29309;42.682;23.372;2022-08-27T01:34:58;11.20;;;4.22;;
43710;SDS011;29309;42.682;23.372;2022-08-27T01:37:25;10.45;;;3.72;;
43710;SDS011;29309;42.682;23.372;2022-08-27T01:39:52;8.20;;;4.25;;
43710;SDS011;29309;42.682;23.372;2022-08-27T01:42:21;18.88;;;4.00;;
43710;SDS011;29309;42.682;23.372;2022-08-27T01:44:53;8.95;;;3.03;;
43710;SDS011;29309;42.682;23.372;2022-08-27T01:47:25;14.40;;;4.28;;
43710;SDS011;29309;42.682;23.372;2022-08-27T01:49:52;10.10;;;3.95;;
43710;SDS011;29309;42.682;23.372;2022-08-27T01:52:19;7.28;;;3.85;;
43710;SDS011;29309;42.682;23.372;2022-08-27T01:54:47;14.45;;;4.40;;
43710;SDS011;29309;42.682;23.372;2022-08-27T01:57:14;12.73;;;4.35;;
43710;SDS011;29309;42.682;23.372;2022-08-27T01:59:40;9.00;;;3.92;;
43710;SDS011;29309;42.682;23.372;2022-08-27T02:02:06;17.77;;;4.25;;
43710;SDS011;29309;42.682;23.372;2022-08-27T02:04:35;9.80;;;3.85;;
43710;SDS011;29309;42.682;23.372;2022-08-27T02:07:02;6.80;;;3.75;;
43710;SDS011;29309;42.682;23.372;2022-08-27T02:09:28;12.00;;;3.85;;
43710;SDS011;29309;42.682;23.372;2022-08-27T02:11:53;10.32;;;4.22;;
43710;SDS011;29309;42.682;23.372;2022-08-27T02:14:19;9.30;;;4.35;;
43710;SDS011;29309;42.682;23.372;2022-08-27T02:16:44;12.10;;;4.10;;
43710;SDS011;29309;42.682;23.372;2022-08-27T02:19:10;12.73;;;3.78;;
43710;SDS011;29309;42.682;23.372;2022-08-27T02:21:36;10.90;;;3.67;;
43710;SDS011;29309;42.682;23.372;2022-08-27T02:24:02;13.55;;;4.07;;
43710;SDS011;29309;42.682;23.372;2022-08-27T02:26:28;10.60;;;4.32;;
43710;SDS011;29309;42.682;23.372;2022-08-27T02:28:54;11.98;;;3.75;;
43710;SDS011;29309;42.682;23.372;2022-08-27T02:31:19;9.65;;;3.60;;
43710;SDS011;29309;42.682;23.372;2022-08-27T02:33:45;8.93;;;3.67;;
43710;SDS011;29309;42.682;23.372;2022-08-27T02:36:11;7.68;;;3.83;;
43710;SDS011;29309;42.682;23.372;2022-08-27T02:38:37;8.07;;;3.70;;
43710;SDS011;29309;42.682;23.372;2022-08-27T02:41:03;10.30;;;3.45;;
43710;SDS011;29309;42.682;23.372;2022-08-27T02:43:29;11.77;;;4.18;;
43710;SDS011;29309;42.682;23.372;2022-08-27T02:45:55;12.25;;;3.60;;
43710;SDS011;29309;42.682;23.372;2022-08-27T02:48:21;10.98;;;4.10;;
43710;SDS011;29309;42.682;23.372;2022-08-27T02:50:48;5.95;;;3.65;;
43710;SDS011;29309;42.682;23.372;2022-08-27T02:53:14;8.90;;;3.80;;
43710;SDS011;29309;42.682;23.372;2022-08-27T02:55:40;9.32;;;3.88;;
43710;SDS011;29309;42.682;23.372;2022-08-27T02:58:06;12.10;;;3.85;;
43710;SDS011;29309;42.682;23.372;2022-08-27T03:00:32;8.20;;;3.72;;
43710;SDS011;29309;42.682;23.372;2022-08-27T03:02:58;9.20;;;3.75;;
43710;SDS011;29309;42.682;23.372;2022-08-27T03:05:26;4.40;;;3.33;;
43710;SDS011;29309;42.682;23.372;2022-08-27T03:07:52;7.35;;;3.58;;
43710;SDS011;29309;42.682;23.372;2022-08-27T03:10:18;5.65;;;3.17;;
43710;SDS011;29309;42.682;23.372;2022-08-27T03:12:44;11.05;;;3.83;;
43710;SDS011;29309;42.682;23.372;2022-08-27T03:15:12;9.70;;;3.22;;
43710;SDS011;29309;42.682;23.372;2022-08-27T03:17:40;13.07;;;3.35;;
43710;SDS011;29309;42.682;23.372;2022-08-27T03:20:24;9.20;;;3.53;;
43710;SDS011;29309;42.682;23.372;2022-08-27T03:22:51;9.55;;;3.85;;
43710;SDS011;29309;42.682;23.372;2022-08-27T03:25:17;7.85;;;3.65;;
43710;SDS011;29309;42.682;23.372;2022-08-27T03:27:43;6.95;;;4.00;;
43710;SDS011;29309;42.682;23.372;2022-08-27T03:30:10;8.40;;;3.72;;
43710;SDS011;29309;42.682;23.372;2022-08-27T03:32:41;10.00;;;3.80;;
43710;SDS011;29309;42.682;23.372;2022-08-27T03:35:07;12.43;;;3.95;;
43710;SDS011;29309;42.682;23.372;2022-08-27T03:37:33;9.27;;;3.75;;
43710;SDS011;29309;42.682;23.372;2022-08-27T03:39:59;16.42;;;3.50;;
43710;SDS011;29309;42.682;23.372;2022-08-27T03:42:25;9.50;;;4.00;;
43710;SDS011;29309;42.682;23.372;2022-08-27T03:44:51;13.82;;;3.50;;
43710;SDS011;29309;42.682;23.372;2022-08-27T03:47:16;7.35;;;3.25;;
43710;SDS011;29309;42.682;23.372;2022-08-27T03:49:42;9.98;;;3.72;;
43710;SDS011;29309;42.682;23.372;2022-08-27T03:52:08;9.82;;;4.50;;
43710;SDS011;29309;42.682;23.372;2022-08-27T03:54:34;9.63;;;3.50;;
43710;SDS011;29309;42.682;23.372;2022-08-27T03:57:00;10.35;;;3.75;;
43710;SDS011;29309;42.682;23.372;2022-08-27T03:59:26;12.52;;;4.50;;
43710;SDS011;29309;42.682;23.372;2022-08-27T04:01:52;10.20;;;4.03;;
43710;SDS011;29309;42.682;23.372;2022-08-27T04:04:17;6.80;;;3.88;;
43710;SDS011;29309;42.682;23.372;2022-08-27T04:06:43;15.75;;;5.10;;
43710;SDS011;29309;42.682;23.372;2022-08-27T04:09:08;10.00;;;4.45;;
43710;SDS011;29309;42.682;23.372;2022-08-27T04:11:34;10.40;;;4.75;;
43710;SDS011;29309;42.682;23.372;2022-08-27T04:14:02;15.57;;;6.13;;
43710;SDS011;29309;42.682;23.372;2022-08-27T04:16:29;14.82;;;5.38;;
43710;SDS011;29309;42.682;23.372;2022-08-27T04:18:55;9.68;;;5.32;;
43710;SDS011;29309;42.682;23.372;2022-08-27T04:21:21;15.73;;;5.13;;
43710;SDS011;29309;42.682;23.372;2022-08-27T04:23:47;13.25;;;4.20;;
43710;SDS011;29309;42.682;23.372;2022-08-27T04:26:13;7.47;;;4.50;;
43710;SDS011;29309;42.682;23.372;2022-08-27T04:28:39;12.43;;;4.57;;
43710;SDS011;29309;42.682;23.372;2022-08-27T04:31:05;13.57;;;4.40;;
43710;SDS011;29309;42.682;23.372;2022-08-27T04:33:31;11.80;;;4.53;;
43710;SDS011;29309;42.682;23.372;2022-08-27T04:35:58;11.35;;;4.30;;
43710;SDS011;29309;42.682;23.372;2022-08-27T04:38:24;13.75;;;4.93;;
43710;SDS011;29309;42.682;23.372;2022-08-27T04:40:50;12.98;;;4.65;;
43710;SDS011;29309;42.682;23.372;2022-08-27T04:43:34;12.88;;;4.55;;
43710;SDS011;29309;42.682;23.372;2022-08-27T04:45:59;12.05;;;4.18;;
43710;SDS011;29309;42.682;23.372;2022-08-27T04:48:25;20.77;;;5.00;;
43710;SDS011;29309;42.682;23.372;2022-08-27T04:53:35;13.60;;;4.00;;
43710;SDS011;29309;42.682;23.372;2022-08-27T04:56:01;13.18;;;4.30;;
43710;SDS011;29309;42.682;23.372;2022-08-27T04:58:26;18.63;;;4.75;;
43710;SDS011;29309;42.682;23.372;2022-08-27T05:00:53;7.88;;;4.30;;
43710;SDS011;29309;42.682;23.372;2022-08-27T05:03:21;12.73;;;5.45;;
43710;SDS011;29309;42.682;23.372;2022-08-27T05:05:48;12.55;;;5.35;;
43710;SDS011;29309;42.682;23.372;2022-08-27T05:08:15;14.50;;;6.00;;
43710;SDS011;29309;42.682;23.372;2022-08-27T05:10:48;16.08;;;5.32;;
43710;SDS011;29309;42.682;23.372;2022-08-27T05:13:15;12.25;;;4.75;;
43710;SDS011;29309;42.682;23.372;2022-08-27T05:15:43;7.57;;;4.00;;
43710;SDS011;29309;42.682;23.372;2022-08-27T05:18:09;9.65;;;4.50;;
43710;SDS011;29309;42.682;23.372;2022-08-27T05:20:40;10.10;;;5.32;;
43710;SDS011;29309;42.682;23.372;2022-08-27T05:23:11;16.60;;;4.43;;
43710;SDS011;29309;42.682;23.372;2022-08-27T05:25:41;9.57;;;3.50;;
43710;SDS011;29309;42.682;23.372;2022-08-27T05:28:10;13.20;;;4.30;;
43710;SDS011;29309;42.682;23.372;2022-08-27T05:30:37;22.63;;;5.30;;
43710;SDS011;29309;42.682;23.372;2022-08-27T05:33:06;9.65;;;4.22;;
43710;SDS011;29309;42.682;23.372;2022-08-27T05:35:42;15.32;;;4.70;;
43710;SDS011;29309;42.682;23.372;2022-08-27T05:38:09;13.40;;;4.40;;
43710;SDS011;29309;42.682;23.372;2022-08-27T05:40:36;13.43;;;4.07;;
43710;SDS011;29309;42.682;23.372;2022-08-27T05:43:02;8.93;;;4.60;;
43710;SDS011;29309;42.682;23.372;2022-08-27T05:45:29;16.63;;;4.15;;
43710;SDS011;29309;42.682;23.372;2022-08-27T05:47:56;15.20;;;4.78;;
43710;SDS011;29309;42.682;23.372;2022-08-27T05:50:25;12.85;;;4.53;;
43710;SDS011;29309;42.682;23.372;2022-08-27T05:52:51;9.60;;;4.13;;
43710;SDS011;29309;42.682;23.372;2022-08-27T05:55:17;7.63;;;4.07;;
43710;SDS011;29309;42.682;23.372;2022-08-27T05:57:43;22.08;;;6.03;;
43710;SDS011;29309;42.682;23.372;2022-08-27T06:00:09;11.18;;;5.22;;
43710;SDS011;29309;42.682;23.372;2022-08-27T06:02:54;11.15;;;4.00;;
43710;SDS011;29309;42.682;23.372;2022-08-27T06:05:19;12.82;;;4.40;;
43710;SDS011;29309;42.682;23.372;2022-08-27T06:07:45;10.75;;;4.10;;
43710;SDS011;29309;42.682;23.372;2022-08-27T06:10:10;12.18;;;4.00;;
43710;SDS011;29309;42.682;23.372;2022-08-27T06:12:37;11.75;;;4.00;;
43710;SDS011;29309;42.682;23.372;2022-08-27T06:15:02;9.35;;;4.20;;
43710;SDS011;29309;42.682;23.372;2022-08-27T06:17:28;11.07;;;4.13;;
43710;SDS011;29309;42.682;23.372;2022-08-27T06:19:54;6.80;;;4.53;;
43710;SDS011;29309;42.682;23.372;2022-08-27T06:22:20;6.10;;;3.72;;
43710;SDS011;29309;42.682;23.372;2022-08-27T06:24:55;13.75;;;5.03;;
43710;SDS011;29309;42.682;23.372;2022-08-27T06:27:21;15.40;;;4.80;;
43710;SDS011;29309;42.682;23.372;2022-08-27T06:29:46;9.52;;;3.78;;
43710;SDS011;29309;42.682;23.372;2022-08-27T06:32:13;10.70;;;4.47;;
43710;SDS011;29309;42.682;23.372;2022-08-27T06:34:39;15.95;;;4.03;;
43710;SDS011;29309;42.682;23.372;2022-08-27T06:37:05;6.22;;;3.55;;
43710;SDS011;29309;42.682;23.372;2022-08-27T06:39:31;20.48;;;4.80;;
43710;SDS011;29309;42.682;23.372;2022-08-27T06:41:57;7.95;;;4.20;;
43710;SDS011;29309;42.682;23.372;2022-08-27T06:44:23;13.23;;;4.07;;
43710;SDS011;29309;42.682;23.372;2022-08-27T06:46:49;8.57;;;4.80;;
43710;SDS011;29309;42.682;23.372;2022-08-27T06:49:15;14.80;;;4.10;;
43710;SDS011;29309;42.682;23.372;2022-08-27T06:51:43;14.77;;;3.92;;
43710;SDS011;29309;42.682;23.372;2022-08-27T06:54:11;8.57;;;4.40;;
43710;SDS011;29309;42.682;23.372;2022-08-27T06:56:39;14.57;;;4.72;;
43710;SDS011;29309;42.682;23.372;2022-08-27T06:59:06;8.45;;;3.90;;
43710;SDS011;29309;42.682;23.372;2022-08-27T07:01:35;12.32;;;3.92;;
43710;SDS011;29309;42.682;23.372;2022-08-27T07:04:06;9.98;;;4.07;;
43710;SDS011;29309;42.682;23.372;2022-08-27T07:06:33;12.35;;;4.45;;
43710;SDS011;29309;42.682;23.372;2022-08-27T07:09:00;11.70;;;4.53;;
43710;SDS011;29309;42.682;23.372;2022-08-27T07:11:26;11.63;;;4.05;;
43710;SDS011;29309;42.682;23.372;2022-08-27T07:13:56;11.50;;;4.35;;
43710;SDS011;29309;42.682;23.372;2022-08-27T07:16:25;8.27;;;4.28;;
43710;SDS011;29309;42.682;23.372;2022-08-27T07:18:53;11.07;;;4.13;;
43710;SDS011;29309;42.682;23.372;2022-08-27T07:21:21;16.02;;;3.75;;
43710;SDS011;29309;42.682;23.372;2022-08-27T07:23:47;11.15;;;3.72;;
43710;SDS011;29309;42.682;23.372;2022-08-27T07:26:15;10.88;;;3.95;;
43710;SDS011;29309;42.682;23.372;2022-08-27T07:28:42;9.88;;;3.53;;
43710;SDS011;29309;42.682;23.372;2022-08-27T07:31:09;13.77;;;3.97;;
43710;SDS011;29309;42.682;23.372;2022-08-27T07:33:37;10.80;;;4.60;;
43710;SDS011;29309;42.682;23.372;2022-08-27T07:36:04;9.20;;;3.45;;
43710;SDS011;29309;42.682;23.372;2022-08-27T07:38:31;11.57;;;3.53;;
43710;SDS011;29309;42.682;23.372;2022-08-27T07:40:57;10.65;;;4.28;;
43710;SDS011;29309;42.682;23.372;2022-08-27T07:43:22;12.77;;;3.95;;
43710;SDS011;29309;42.682;23.372;2022-08-27T07:46:06;10.60;;;3.35;;
43710;SDS011;29309;42.682;23.372;2022-08-27T07:48:32;14.75;;;3.75;;
43710;SDS011;29309;42.682;23.372;2022-08-27T07:50:59;12.90;;;4.60;;
43710;SDS011;29309;42.682;23.372;2022-08-27T07:53:29;13.68;;;3.80;;
43710;SDS011;29309;42.682;23.372;2022-08-27T07:56:00;12.23;;;5.20;;
43710;SDS011;29309;42.682;23.372;2022-08-27T07:58:27;17.88;;;4.38;;
43710;SDS011;29309;42.682;23.372;2022-08-27T08:00:53;9.50;;;3.58;;
43710;SDS011;29309;42.682;23.372;2022-08-27T08:03:19;11.55;;;4.07;;
43710;SDS011;29309;42.682;23.372;2022-08-27T08:05:45;19.45;;;4.70;;
43710;SDS011;29309;42.682;23.372;2022-08-27T08:08:10;8.73;;;4.35;;
43710;SDS011;29309;42.682;23.372;2022-08-27T08:10:36;8.18;;;3.92;;
43710;SDS011;29309;42.682;23.372;2022-08-27T08:13:03;11.75;;;4.95;;
43710;SDS011;29309;42.682;23.372;2022-08-27T08:15:29;16.30;;;5.13;;
43710;SDS011;29309;42.682;23.372;2022-08-27T08:17:55;7.88;;;4.30;;
43710;SDS011;29309;42.682;23.372;2022-08-27T08:20:21;12.20;;;4.20;;
43710;SDS011;29309;42.682;23.372;2022-08-27T08:22:46;14.82;;;4.30;;
43710;SDS011;29309;42.682;23.372;2022-08-27T08:25:13;9.27;;;3.63;;
43710;SDS011;29309;42.682;23.372;2022-08-27T08:27:39;10.77;;;3.75;;
43710;SDS011;29309;42.682;23.372;2022-08-27T08:30:05;8.93;;;3.67;;
43710;SDS011;29309;42.682;23.372;2022-08-27T08:32:32;15.52;;;3.78;;
43710;SDS011;29309;42.682;23.372;2022-08-27T08:34:57;10.82;;;3.78;;
43710;SDS011;29309;42.682;23.372;2022-08-27T08:37:24;15.98;;;3.95;;
43710;SDS011;29309;42.682;23.372;2022-08-27T08:39:49;9.32;;;3.58;;
43710;SDS011;29309;42.682;23.372;2022-08-27T08:44:50;8.05;;;4.20;;
43710;SDS011;29309;42.682;23.372;2022-08-27T08:47:24;9.65;;;3.40;;
43710;SDS011;29309;42.682;23.372;2022-08-27T08:53:04;13.50;;;3.95;;
43710;SDS011;29309;42.682;23.372;2022-08-27T08:58:14;8.30;;;3.63;;
43710;SDS011;29309;42.682;23.372;2022-08-27T09:00:44;11.48;;;3.97;;
43710;SDS011;29309;42.682;23.372;2022-08-27T09:03:13;10.02;;;4.10;;
43710;SDS011;29309;42.682;23.372;2022-08-27T09:05:44;13.82;;;4.47;;
43710;SDS011;29309;42.682;23.372;2022-08-27T09:11:05;16.55;;;3.95;;
43710;SDS011;29309;42.682;23.372;2022-08-27T09:16:07;9.00;;;3.42;;
43710;SDS011;29309;42.682;23.372;2022-08-27T09:18:37;13.00;;;3.42;;
43710;SDS011;29309;42.682;23.372;2022-08-27T09:21:09;8.43;;;3.30;;
43710;SDS011;29309;42.682;23.372;2022-08-27T09:26:31;6.75;;;3.28;;
43710;SDS011;29309;42.682;23.372;2022-08-27T09:29:00;11.02;;;3.80;;
43710;SDS011;29309;42.682;23.372;2022-08-27T09:34:38;9.48;;;2.95;;
43710;SDS011;29309;42.682;23.372;2022-08-27T09:37:10;14.38;;;4.35;;
43710;SDS011;29309;42.682;23.372;2022-08-27T09:42:30;13.60;;;2.90;;
43710;SDS011;29309;42.682;23.372;2022-08-27T09:44:59;8.77;;;3.50;;
43710;SDS011;29309;42.682;23.372;2022-08-27T09:47:25;8.13;;;2.85;;
43710;SDS011;29309;42.682;23.372;2022-08-27T09:50:03;11.30;;;2.65;;
43710;SDS011;29309;42.682;23.372;2022-08-27T09:52:32;7.40;;;3.15;;
43710;SDS011;29309;42.682;23.372;2022-08-27T09:55:00;10.73;;;3.92;;
43710;SDS011;29309;42.682;23.372;2022-08-27T09:57:37;12.60;;;2.90;;
43710;SDS011;29309;42.682;23.372;2022-08-27T10:00:13;13.23;;;2.90;;
43710;SDS011;29309;42.682;23.372;2022-08-27T10:02:50;9.45;;;2.67;;
43710;SDS011;29309;42.682;23.372;2022-08-27T10:05:59;6.57;;;2.47;;
43710;SDS011;29309;42.682;23.372;2022-08-27T10:08:41;9.77;;;2.83;;
43710;SDS011;29309;42.682;23.372;2022-08-27T10:11:22;10.95;;;2.70;;
43710;SDS011;29309;42.682;23.372;2022-08-27T10:14:05;6.32;;;2.90;;
43710;SDS011;29309;42.682;23.372;2022-08-27T10:16:54;13.05;;;3.10;;
43710;SDS011;29309;42.682;23.372;2022-08-27T10:24:52;11.75;;;3.25;;
43710;SDS011;29309;42.682;23.372;2022-08-27T10:30:16;7.90;;;3.25;;
43710;SDS011;29309;42.682;23.372;2022-08-27T10:41:04;9.80;;;2.30;;
43710;SDS011;29309;42.682;23.372;2022-08-27T10:56:55;8.10;;;3.05;;
43710;SDS011;29309;42.682;23.372;2022-08-27T11:05:13;12.10;;;3.33;;
43710;SDS011;29309;42.682;23.372;2022-08-27T11:07:49;9.10;;;2.80;;
43710;SDS011;29309;42.682;23.372;2022-08-27T11:10:33;14.23;;;4.25;;
43710;SDS011;29309;42.682;23.372;2022-08-27T11:13:07;11.30;;;2.92;;
43710;SDS011;29309;42.682;23.372;2022-08-27T11:15:38;10.20;;;3.92;;
43710;SDS011;29309;42.682;23.372;2022-08-27T11:23:43;9.68;;;2.90;;
43710;SDS011;29309;42.682;23.372;2022-08-27T11:26:17;14.07;;;3.58;;
43710;SDS011;29309;42.682;23.372;2022-08-27T11:34:58;16.02;;;3.08;;
43710;SDS011;29309;42.682;23.372;2022-08-27T11:40:52;12.82;;;3.22;;
43710;SDS011;29309;42.682;23.372;2022-08-27T11:43:07;11.80;;;3.35;;
43710;SDS011;29309;42.682;23.372;2022-08-27T11:45:38;10.13;;;2.97;;
43710;SDS011;29309;42.682;23.372;2022-08-27T11:48:31;8.23;;;3.30;;
43710;SDS011;29309;42.682;23.372;2022-08-27T11:51:02;8.13;;;3.22;;
43710;SDS011;29309;42.682;23.372;2022-08-27T11:56:17;9.73;;;2.90;;
43710;SDS011;29309;42.682;23.372;2022-08-27T12:01:52;13.90;;;2.90;;
43710;SDS011;29309;42.682;23.372;2022-08-27T12:04:35;13.90;;;3.05;;
43710;SDS011;29309;42.682;23.372;2022-08-27T12:21:00;10.30;;;3.35;;
43710;SDS011;29309;42.682;23.372;2022-08-27T12:23:40;4.78;;;2.30;;
43710;SDS011;29309;42.682;23.372;2022-08-27T12:26:29;12.73;;;2.90;;
43710;SDS011;29309;42.682;23.372;2022-08-27T12:31:51;5.05;;;2.45;;
43710;SDS011;29309;42.682;23.372;2022-08-27T12:34:21;12.00;;;3.40;;
43710;SDS011;29309;42.682;23.372;2022-08-27T12:36:50;13.27;;;3.22;;
43710;SDS011;29309;42.682;23.372;2022-08-27T12:39:18;19.90;;;3.65;;
43710;SDS011;29309;42.682;23.372;2022-08-27T12:42:03;7.32;;;2.75;;
43710;SDS011;29309;42.682;23.372;2022-08-27T12:44:37;10.13;;;2.67;;
43710;SDS011;29309;42.682;23.372;2022-08-27T12:47:04;11.48;;;2.60;;
43710;SDS011;29309;42.682;23.372;2022-08-27T12:55:02;9.82;;;2.72;;
43710;SDS011;29309;42.682;23.372;2022-08-27T12:57:40;8.75;;;3.22;;
43710;SDS011;29309;42.682;23.372;2022-08-27T13:00:30;11.38;;;2.72;;
43710;SDS011;29309;42.682;23.372;2022-08-27T13:08:33;10.07;;;2.75;;
43710;SDS011;29309;42.682;23.372;2022-08-27T13:11:10;10.80;;;2.88;;
43710;SDS011;29309;42.682;23.372;2022-08-27T13:13:42;9.93;;;2.72;;
43710;SDS011;29309;42.682;23.372;2022-08-27T13:16:08;9.55;;;3.55;;
43710;SDS011;29309;42.682;23.372;2022-08-27T13:18:37;6.68;;;2.75;;
43710;SDS011;29309;42.682;23.372;2022-08-27T13:21:20;6.75;;;2.30;;
43710;SDS011;29309;42.682;23.372;2022-08-27T13:23:58;7.63;;;3.03;;
43710;SDS011;29309;42.682;23.372;2022-08-27T13:26:27;7.55;;;2.92;;
43710;SDS011;29309;42.682;23.372;2022-08-27T13:29:01;10.95;;;2.85;;
43710;SDS011;29309;42.682;23.372;2022-08-27T13:31:30;11.10;;;3.10;;
43710;SDS011;29309;42.682;23.372;2022-08-27T13:33:56;9.82;;;2.97;;
43710;SDS011;29309;42.682;23.372;2022-08-27T13:36:30;9.13;;;2.90;;
43710;SDS011;29309;42.682;23.372;2022-08-27T13:39:06;5.32;;;2.78;;
43710;SDS011;29309;42.682;23.372;2022-08-27T13:41:33;5.30;;;2.85;;
43710;SDS011;29309;42.682;23.372;2022-08-27T13:44:07;10.30;;;3.15;;
43710;SDS011;29309;42.682;23.372;2022-08-27T13:47:21;11.32;;;2.80;;
43710;SDS011;29309;42.682;23.372;2022-08-27T13:49:29;12.77;;;6.22;;
43710;SDS011;29309;42.682;23.372;2022-08-27T13:54:33;14.40;;;3.17;;
43710;SDS011;29309;42.682;23.372;2022-08-27T13:57:00;6.88;;;2.70;;
43710;SDS011;29309;42.682;23.372;2022-08-27T13:59:34;10.15;;;3.17;;
43710;SDS011;29309;42.682;23.372;2022-08-27T14:09:39;9.18;;;2.97;;
43710;SDS011;29309;42.682;23.372;2022-08-27T14:12:08;8.25;;;3.25;;
43710;SDS011;29309;42.682;23.372;2022-08-27T14:14:39;11.23;;;3.13;;
43710;SDS011;29309;42.682;23.372;2022-08-27T14:17:06;8.75;;;2.67;;
43710;SDS011;29309;42.682;23.372;2022-08-27T14:19:52;6.70;;;2.80;;
43710;SDS011;29309;42.682;23.372;2022-08-27T14:22:23;6.75;;;2.65;;
43710;SDS011;29309;42.682;23.372;2022-08-27T14:24:49;6.85;;;2.97;;
43710;SDS011;29309;42.682;23.372;2022-08-27T14:27:15;5.82;;;3.08;;
43710;SDS011;29309;42.682;23.372;2022-08-27T14:29:41;12.10;;;3.00;;
43710;SDS011;29309;42.682;23.372;2022-08-27T14:32:07;10.30;;;3.10;;
43710;SDS011;29309;42.682;23.372;2022-08-27T14:34:33;8.60;;;3.75;;
43710;SDS011;29309;42.682;23.372;2022-08-27T14:36:59;11.15;;;3.70;;
43710;SDS011;29309;42.682;23.372;2022-08-27T14:39:25;6.22;;;2.70;;
43710;SDS011;29309;42.682;23.372;2022-08-27T14:41:51;10.65;;;3.60;;
43710;SDS011;29309;42.682;23.372;2022-08-27T14:44:28;8.20;;;2.78;;
43710;SDS011;29309;42.682;23.372;2022-08-27T14:46:55;13.00;;;3.25;;
43710;SDS011;29309;42.682;23.372;2022-08-27T14:49:33;9.13;;;2.97;;
43710;SDS011;29309;42.682;23.372;2022-08-27T14:52:10;13.98;;;3.83;;
43710;SDS011;29309;42.682;23.372;2022-08-27T14:54:37;9.35;;;3.20;;
43710;SDS011;29309;42.682;23.372;2022-08-27T14:57:05;9.68;;;2.65;;
43710;SDS011;29309;42.682;23.372;2022-08-27T14:59:32;9.85;;;3.30;;
43710;SDS011;29309;42.682;23.372;2022-08-27T15:01:59;6.63;;;2.83;;
43710;SDS011;29309;42.682;23.372;2022-08-27T15:04:27;15.57;;;4.32;;
43710;SDS011;29309;42.682;23.372;2022-08-27T15:06:53;9.43;;;2.70;;
43710;SDS011;29309;42.682;23.372;2022-08-27T15:09:19;8.52;;;2.70;;
43710;SDS011;29309;42.682;23.372;2022-08-27T15:11:45;8.35;;;3.30;;
43710;SDS011;29309;42.682;23.372;2022-08-27T15:14:31;7.43;;;3.53;;
43710;SDS011;29309;42.682;23.372;2022-08-27T15:16:59;7.88;;;2.67;;
43710;SDS011;29309;42.682;23.372;2022-08-27T15:19:26;9.88;;;3.58;;
43710;SDS011;29309;42.682;23.372;2022-08-27T15:21:55;12.90;;;3.90;;
43710;SDS011;29309;42.682;23.372;2022-08-27T15:24:45;8.52;;;3.63;;
43710;SDS011;29309;42.682;23.372;2022-08-27T15:27:13;12.00;;;3.35;;
43710;SDS011;29309;42.682;23.372;2022-08-27T15:29:39;9.35;;;3.22;;
43710;SDS011;29309;42.682;23.372;2022-08-27T15:32:05;8.75;;;2.83;;
43710;SDS011;29309;42.682;23.372;2022-08-27T15:34:34;11.10;;;3.22;;
43710;SDS011;29309;42.682;23.372;2022-08-27T15:37:01;8.20;;;2.92;;
43710;SDS011;29309;42.682;23.372;2022-08-27T15:39:27;14.52;;;3.60;;
43710;SDS011;29309;42.682;23.372;2022-08-27T15:41:53;4.85;;;3.03;;
43710;SDS011;29309;42.682;23.372;2022-08-27T15:44:18;14.23;;;3.05;;
43710;SDS011;29309;42.682;23.372;2022-08-27T15:46:44;16.65;;;3.20;;
43710;SDS011;29309;42.682;23.372;2022-08-27T15:49:09;8.07;;;3.03;;
43710;SDS011;29309;42.682;23.372;2022-08-27T15:51:38;13.90;;;2.88;;
43710;SDS011;29309;42.682;23.372;2022-08-27T15:54:03;16.17;;;2.80;;
43710;SDS011;29309;42.682;23.372;2022-08-27T15:56:29;11.05;;;3.30;;
43710;SDS011;29309;42.682;23.372;2022-08-27T15:58:55;7.97;;;2.90;;
43710;SDS011;29309;42.682;23.372;2022-08-27T16:01:24;9.38;;;3.15;;
43710;SDS011;29309;42.682;23.372;2022-08-27T16:03:52;10.85;;;2.90;;
43710;SDS011;29309;42.682;23.372;2022-08-27T16:06:18;7.40;;;2.67;;
43710;SDS011;29309;42.682;23.372;2022-08-27T16:08:44;6.43;;;3.00;;
43710;SDS011;29309;42.682;23.372;2022-08-27T16:11:09;14.73;;;3.55;;
43710;SDS011;29309;42.682;23.372;2022-08-27T16:13:35;14.48;;;5.20;;
43710;SDS011;29309;42.682;23.372;2022-08-27T16:16:02;13.20;;;4.75;;
43710;SDS011;29309;42.682;23.372;2022-08-27T16:18:29;8.30;;;3.92;;
43710;SDS011;29309;42.682;23.372;2022-08-27T16:20:56;8.13;;;3.42;;
43710;SDS011;29309;42.682;23.372;2022-08-27T16:23:24;12.20;;;3.28;;
43710;SDS011;29309;42.682;23.372;2022-08-27T16:25:51;14.20;;;3.13;;
43710;SDS011;29309;42.682;23.372;2022-08-27T16:28:17;17.77;;;2.97;;
43710;SDS011;29309;42.682;23.372;2022-08-27T16:30:43;9.07;;;2.83;;
43710;SDS011;29309;42.682;23.372;2022-08-27T16:33:09;14.50;;;3.30;;
43710;SDS011;29309;42.682;23.372;2022-08-27T16:35:35;12.07;;;3.38;;
43710;SDS011;29309;42.682;23.372;2022-08-27T16:38:02;13.05;;;2.95;;
43710;SDS011;29309;42.682;23.372;2022-08-27T16:40:28;10.00;;;3.13;;
43710;SDS011;29309;42.682;23.372;2022-08-27T16:42:53;14.02;;;3.30;;